メインページ
METAR-TAF:

METAR-TAF

空港 :

ナイアガラフォールズ, ニューヨーク, アメリカ合衆国

緯度: 43-06-26N, 経度: 078-56-43W, 海抜: 180m

現時点の気象観測

当レポートは34分前の16:53(UTC)に作成
西/北西の風 14kt
気温 27°C
湿度 39%
気圧 1013 hPa
視程: 16.1km
晴天

METAR: KIAG 211653Z 29014KT 10SM CLR 27/12 A2990 RMK AO2 SLP120 T02720122

時間: 13:27 (17:27 UTC)

予報

当レポートは3時間22分前の14:05(UTC)に作成
予報は21日の 14時(UTC)から 22日の 12時(UTC)まで有効
西の風 10kt
視程: 10km
高度2500ftの雲は散在している
高度12000ftの千切れ雲あり
近辺でにわか雨
21日の 1800時(UTC)から
西/北西の風 12kt
視程: 10km
高度20000ftの雲は散在している
22日の 0100時(UTC)から
北/北西の風 5kt
視程: 10km
高度20000ftの雲は散在している

TAF: KIAG 211405Z 2114/2212 28010KT P6SM VCSH SCT025 BKN120 FM211800 30012KT P6SM SCT200 FM220100 34005KT P6SM SCT200

4,000以上の空港の気象観測と天気予報(METAR報とTAF報)

利用可能な観測所は地図上に黄色い丸と赤い丸で示す。

丸の上にカーソルを重ねると観測所名を参照できる。

次にクリックすると気象観測と天気予報を参照できる。

マップの切り替え:黒色「×」印の緑ボタンをクリックして拡大、「-」印の緑ボタンをクリックして縮小、緑色の三角印をクリックして隣りの地図に切り替え


METAR-TAF: